Time;durP1;ratioP1;P1;durP2;ratioP2;P2;SDS_P1;SDS_P2;PMS_P1;PMS_P2;Temp;Humidity;BMP_temperature;BMP_pressure;BME280_temperature;BME280_humidity;BME280_pressure;Samples;Min_cycle;Max_cycle;Signal;HPM_P1;HPM_P2
2022/01/14 00:00:39;;;;;;;25.75;16.02;;;5.80;99.90;;;;;;5119283;28;20043;-78
2022/01/14 00:03:06;;;;;;;32.45;15.50;;;5.80;99.90;;;;;;5124620;27;20062;-78
2022/01/14 00:05:32;;;;;;;32.22;14.25;;;5.80;99.90;;;;;;5128675;27;20054;-76
2022/01/14 00:07:59;;;;;;;26.77;14.65;;;5.80;99.90;;;;;;5121105;27;20047;-78
2022/01/14 00:10:29;;;;;;;19.83;13.95;;;5.80;99.90;;;;;;5125645;27;20050;-78
2022/01/14 00:13:05;;;;;;;30.00;15.57;;;5.80;99.90;;;;;;5125963;27;20135;-78
2022/01/14 00:15:34;;;;;;;26.65;14.85;;;5.80;99.90;;;;;;5123164;28;20867;-78
2022/01/14 00:18:01;;;;;;;30.35;14.63;;;5.80;99.90;;;;;;5122934;27;20058;-78
2022/01/14 00:20:27;;;;;;;16.38;11.40;;;5.80;99.90;;;;;;5144630;27;20042;-78
2022/01/14 00:22:54;;;;;;;32.00;14.65;;;5.80;99.90;;;;;;5139946;27;20051;-78
2022/01/14 00:33:33;;;;;;;29.00;13.65;;;5.80;99.90;;;;;;5133347;27;20047;-79
2022/01/14 00:35:59;;;;;;;21.48;13.93;;;5.80;99.90;;;;;;5134540;27;20047;-78
2022/01/14 00:38:26;;;;;;;27.58;14.68;;;5.90;99.90;;;;;;5127531;27;20055;-78
2022/01/14 00:40:53;;;;;;;34.72;15.02;;;5.80;99.90;;;;;;5122068;27;20493;-78
2022/01/14 00:43:19;;;;;;;19.95;12.38;;;5.90;99.90;;;;;;5129282;28;20050;-78
2022/01/14 00:45:46;;;;;;;26.38;13.10;;;5.80;99.90;;;;;;5115671;28;20059;-77
2022/01/14 00:48:12;;;;;;;34.45;13.60;;;5.90;99.90;;;;;;5131485;27;20099;-78
2022/01/14 00:50:41;;;;;;;32.22;12.60;;;5.90;99.90;;;;;;5151876;27;20129;-78
2022/01/14 00:53:08;;;;;;;23.08;13.00;;;5.90;99.90;;;;;;5122332;27;20038;-78
2022/01/14 00:55:47;;;;;;;30.70;12.95;;;5.90;99.90;;;;;;5137608;27;20615;-78
2022/01/14 01:00:58;;;;;;;33.28;14.05;;;5.90;99.90;;;;;;5126947;27;20047;-77
2022/01/14 01:03:24;;;;;;;30.05;13.65;;;5.90;99.90;;;;;;5129363;27;20482;-78
2022/01/14 01:05:51;;;;;;;22.13;12.32;;;5.90;99.90;;;;;;5122198;27;20047;-76
2022/01/14 01:08:22;;;;;;;34.55;12.02;;;5.90;99.90;;;;;;5146467;27;20485;-79
2022/01/14 01:10:50;;;;;;;32.72;13.18;;;5.90;99.90;;;;;;5131080;27;20043;-77
2022/01/14 01:13:21;;;;;;;18.27;12.93;;;5.90;99.90;;;;;;5124692;27;20050;-79
2022/01/14 01:15:49;;;;;;;21.30;11.73;;;5.90;99.90;;;;;;5128734;27;20050;-78
2022/01/14 01:18:16;;;;;;;25.05;12.50;;;5.90;99.90;;;;;;5129037;27;20505;-78
2022/01/14 01:20:42;;;;;;;27.30;11.60;;;5.90;99.90;;;;;;5147924;27;20114;-79
2022/01/14 01:23:09;;;;;;;18.42;12.05;;;5.90;99.90;;;;;;5150096;27;20054;-78
2022/01/14 01:25:40;;;;;;;22.20;11.25;;;5.90;99.90;;;;;;5144250;27;20073;-78
2022/01/14 01:28:06;;;;;;;22.15;11.48;;;5.90;99.90;;;;;;5154598;27;20058;-78
2022/01/14 01:31:04;;;;;;;26.70;11.27;;;6.00;99.90;;;;;;5122498;27;20042;-76
2022/01/14 01:33:30;;;;;;;21.48;10.23;;;6.00;99.90;;;;;;5128534;27;20061;-78
2022/01/14 01:35:57;;;;;;;19.90;10.68;;;6.00;99.90;;;;;;5142382;27;20050;-78
2022/01/14 01:38:24;;;;;;;32.15;11.75;;;6.00;99.90;;;;;;5128597;27;20116;-79
2022/01/14 01:40:50;;;;;;;18.50;10.15;;;6.00;99.90;;;;;;5121218;27;20094;-79
2022/01/14 01:43:19;;;;;;;23.55;10.77;;;6.00;99.90;;;;;;5149386;27;20050;-78
2022/01/14 01:45:47;;;;;;;23.42;11.10;;;6.00;99.90;;;;;;5148513;27;20057;-78
2022/01/14 01:48:14;;;;;;;18.40;10.85;;;6.00;99.90;;;;;;5131351;27;20043;-78
2022/01/14 01:50:40;;;;;;;19.35;10.45;;;6.00;99.90;;;;;;5133249;27;20054;-78
2022/01/14 01:53:07;;;;;;;22.27;9.57;;;6.00;99.90;;;;;;5129000;27;20047;-78
2022/01/14 01:55:33;;;;;;;26.05;11.15;;;6.00;99.90;;;;;;5138380;27;20047;-78
2022/01/14 01:58:00;;;;;;;33.95;11.13;;;6.00;99.90;;;;;;5125739;27;20057;-78
2022/01/14 02:00:27;;;;;;;19.55;10.07;;;6.00;99.90;;;;;;5126548;27;20043;-78
2022/01/14 02:02:54;;;;;;;22.77;9.77;;;6.00;99.90;;;;;;5118823;27;20051;-78
2022/01/14 02:05:22;;;;;;;25.27;10.60;;;6.00;99.90;;;;;;5130444;27;20063;-78
2022/01/14 02:07:48;;;;;;;31.60;11.77;;;6.00;99.90;;;;;;5116116;27;20130;-78
2022/01/14 02:10:15;;;;;;;25.92;11.88;;;6.00;99.90;;;;;;5131500;27;20042;-78
2022/01/14 02:12:49;;;;;;;26.73;11.32;;;5.90;99.90;;;;;;5152912;27;20042;-78
2022/01/14 02:15:27;;;;;;;27.85;12.50;;;6.00;99.90;;;;;;5148089;27;20046;-78
2022/01/14 02:18:24;;;;;;;22.00;12.25;;;6.00;99.90;;;;;;5124495;27;20077;-79
2022/01/14 02:23:25;;;;;;;27.77;12.35;;;6.00;99.90;;;;;;5133839;27;20219;-79
2022/01/14 02:25:51;;;;;;;27.73;13.02;;;5.90;99.90;;;;;;5130077;27;20059;-77
2022/01/14 02:28:20;;;;;;;34.97;13.65;;;5.90;99.90;;;;;;5120376;27;20051;-78
2022/01/14 02:30:47;;;;;;;32.15;13.05;;;5.90;99.90;;;;;;5120589;27;20602;-79
2022/01/14 02:33:13;;;;;;;28.00;13.63;;;5.90;99.90;;;;;;5122699;27;20062;-78
2022/01/14 02:35:40;;;;;;;28.38;13.02;;;5.80;99.90;;;;;;5139076;27;20500;-77
2022/01/14 02:38:06;;;;;;;27.45;12.90;;;5.80;99.90;;;;;;5115938;27;20074;-78
2022/01/14 02:40:33;;;;;;;25.02;14.15;;;5.90;99.90;;;;;;5134787;27;20399;-79
2022/01/14 02:43:01;;;;;;;28.65;14.80;;;5.90;99.90;;;;;;5122964;27;20397;-77
2022/01/14 02:45:30;;;;;;;25.55;14.48;;;5.90;99.90;;;;;;5116813;27;20051;-79
2022/01/14 02:47:56;;;;;;;26.52;14.50;;;5.90;99.90;;;;;;5121966;27;20062;-78
2022/01/14 02:50:24;;;;;;;30.95;14.65;;;5.80;99.90;;;;;;5123535;27;20050;-78
2022/01/14 02:52:57;;;;;;;31.70;13.73;;;5.80;99.90;;;;;;5139799;27;20056;-78
2022/01/14 02:55:28;;;;;;;27.60;15.27;;;5.80;99.90;;;;;;5129726;27;20046;-79
2022/01/14 02:57:55;;;;;;;;;;;5.80;99.90;;;;;;5128676;27;20051;-79
2022/01/14 03:00:21;;;;;;;28.45;15.88;;;5.80;99.90;;;;;;5130186;27;19919;-79
2022/01/14 03:02:48;;;;;;;23.13;14.85;;;5.70;99.90;;;;;;5116511;27;20040;-78
2022/01/14 03:05:14;;;;;;;26.85;15.07;;;5.70;99.90;;;;;;5132554;27;20043;-78
2022/01/14 03:07:41;;;;;;;26.77;14.65;;;5.90;99.90;;;;;;5134952;27;20043;-79
2022/01/14 03:10:07;;;;;;;29.35;13.05;;;5.90;99.90;;;;;;5124231;27;20051;-79
2022/01/14 03:12:34;;;;;;;38.42;14.50;;;5.90;99.90;;;;;;5124939;27;20051;-79
2022/01/14 03:15:00;;;;;;;23.92;13.48;;;5.90;99.90;;;;;;5122946;27;20478;-78
2022/01/14 03:17:28;;;;;;;27.67;15.73;;;6.00;99.90;;;;;;5132163;27;20481;-78
2022/01/14 03:19:55;;;;;;;44.30;15.15;;;5.90;99.90;;;;;;5128373;27;20055;-78
2022/01/14 03:22:27;;;;;;;25.40;13.90;;;6.00;99.90;;;;;;5137603;27;20494;-78
2022/01/14 03:27:38;;;;;;;33.55;14.75;;;6.00;99.90;;;;;;5121296;27;20085;-79
2022/01/14 03:30:04;;;;;;;27.77;14.23;;;6.00;99.90;;;;;;5131494;27;20058;-78
2022/01/14 03:32:31;;;;;;;33.67;14.75;;;6.00;99.90;;;;;;5117149;27;20055;-79
2022/01/14 03:34:57;;;;;;;24.13;14.27;;;6.00;99.90;;;;;;5125811;27;20469;-78
2022/01/14 03:37:24;;;;;;;26.02;14.15;;;6.00;99.90;;;;;;5120183;27;20959;-78
2022/01/14 03:39:50;;;;;;;27.60;15.02;;;5.90;99.90;;;;;;5151509;27;20409;-78
2022/01/14 03:42:17;;;;;;;32.22;14.25;;;5.90;99.90;;;;;;5149107;27;20073;-79
2022/01/14 03:44:43;;;;;;;27.75;15.68;;;6.00;99.90;;;;;;5125890;27;20047;-78
2022/01/14 03:47:10;;;;;;;34.65;15.70;;;6.00;99.90;;;;;;5126986;27;20047;-78
2022/01/14 03:49:36;;;;;;;37.95;16.48;;;6.00;99.90;;;;;;5122696;27;20104;-79
2022/01/14 03:52:03;;;;;;;27.20;15.73;;;6.00;99.90;;;;;;5130011;27;20501;-79
2022/01/14 03:54:30;;;;;;;38.30;16.02;;;5.90;99.90;;;;;;5133382;27;20478;-78
2022/01/14 03:56:56;;;;;;;32.15;16.83;;;5.90;99.90;;;;;;5135136;27;20055;-79
2022/01/14 03:59:23;;;;;;;29.58;15.07;;;6.00;99.90;;;;;;5151447;27;20051;-78
2022/01/14 04:01:49;;;;;;;24.88;14.75;;;5.90;99.90;;;;;;5134303;27;20042;-78
2022/01/14 04:04:16;;;;;;;29.58;15.70;;;5.90;99.90;;;;;;5139642;27;20050;-78
2022/01/14 04:06:42;;;;;;;30.52;16.05;;;5.90;99.90;;;;;;5132724;27;20401;-79
2022/01/14 04:09:09;;;;;;;25.95;16.02;;;6.00;99.90;;;;;;5149139;27;20047;-78
2022/01/14 04:11:36;;;;;;;31.67;16.30;;;5.90;99.90;;;;;;5123429;28;20051;-78
2022/01/14 04:15:36;;;;;;;24.55;14.45;;;6.00;99.90;;;;;;5126232;27;20089;-77
2022/01/14 04:16:54;;;;;;;27.90;14.40;;;6.00;99.90;;;;;;5114837;27;20057;-78
2022/01/14 04:19:20;;;;;;;28.52;16.33;;;6.00;99.90;;;;;;5122417;27;20051;-78
2022/01/14 04:21:47;;;;;;;26.60;16.10;;;5.90;99.90;;;;;;5132854;27;20045;-78
2022/01/14 04:24:13;;;;;;;32.25;15.35;;;5.90;99.90;;;;;;5120810;27;20054;-78
2022/01/14 04:26:40;;;;;;;30.63;15.48;;;5.90;99.90;;;;;;5121924;28;20046;-78
2022/01/14 04:29:06;;;;;;;23.42;14.02;;;5.90;99.90;;;;;;5120534;27;20058;-78
2022/01/14 04:31:33;;;;;;;36.08;16.48;;;5.90;99.90;;;;;;5128554;27;20055;-78
2022/01/14 04:33:59;;;;;;;25.05;15.15;;;5.90;99.90;;;;;;5115446;28;20051;-78
2022/01/14 04:36:26;;;;;;;32.78;15.88;;;6.00;99.90;;;;;;5121346;27;20398;-78
2022/01/14 04:38:52;;;;;;;34.45;16.58;;;5.90;99.90;;;;;;5135478;27;20046;-79
2022/01/14 04:41:19;;;;;;;24.23;15.38;;;5.80;99.90;;;;;;5128399;27;20058;-79
2022/01/14 04:43:45;;;;;;;29.58;16.92;;;5.80;99.90;;;;;;5121796;27;20043;-78
2022/01/14 04:46:46;;;;;;;28.00;17.38;;;5.80;99.90;;;;;;5138356;27;20058;-78
2022/01/14 04:49:12;;;;;;;35.92;17.52;;;5.80;99.90;;;;;;5125736;27;20090;-78
2022/01/14 04:51:39;;;;;;;40.65;17.85;;;5.80;99.90;;;;;;5133553;27;20047;-78
2022/01/14 04:54:05;;;;;;;37.17;17.48;;;5.80;99.90;;;;;;5118026;27;20054;-77
2022/01/14 04:56:32;;;;;;;38.13;18.88;;;5.80;99.90;;;;;;5118921;27;20043;-77
2022/01/14 04:58:58;;;;;;;30.70;16.60;;;5.80;99.90;;;;;;5117132;27;20043;-78
2022/01/14 05:01:25;;;;;;;38.80;17.73;;;5.70;99.90;;;;;;5141757;27;20054;-78
2022/01/14 05:03:52;;;;;;;39.17;17.77;;;5.70;99.90;;;;;;5122706;27;20103;-79
2022/01/14 05:06:18;;;;;;;38.28;18.40;;;5.70;99.90;;;;;;5146235;27;20050;-79
2022/01/14 05:08:45;;;;;;;33.58;18.85;;;5.70;99.90;;;;;;5134395;27;20061;-79
2022/01/14 05:13:58;;;;;;;34.17;18.75;;;5.60;99.90;;;;;;5120264;27;20393;-79
2022/01/14 05:16:24;;;;;;;34.85;17.60;;;5.70;99.90;;;;;;5136583;27;20477;-78
2022/01/14 05:18:51;;;;;;;40.35;19.70;;;5.80;99.90;;;;;;5139392;27;20121;-79
2022/01/14 05:21:19;;;;;;;45.88;19.83;;;5.80;99.90;;;;;;5145419;27;20051;-79
2022/01/14 05:23:46;;;;;;;44.45;19.77;;;5.80;99.90;;;;;;5119112;27;20474;-79
2022/01/14 05:26:12;;;;;;;34.72;17.35;;;5.80;99.90;;;;;;5118297;27;20043;-77
2022/01/14 05:28:39;;;;;;;31.15;15.60;;;5.90;99.90;;;;;;5131594;27;20050;-79
2022/01/14 05:31:06;;;;;;;43.28;18.15;;;6.00;99.90;;;;;;5151876;27;20046;-78
2022/01/14 05:33:32;;;;;;;35.72;17.38;;;6.00;99.90;;;;;;5126023;27;20054;-79
2022/01/14 05:35:59;;;;;;;25.52;16.25;;;6.10;99.90;;;;;;5137135;27;20103;-79
2022/01/14 05:38:25;;;;;;;34.80;17.60;;;6.10;99.90;;;;;;5129206;27;20430;-78
2022/01/14 05:40:52;;;;;;;34.38;18.90;;;6.10;99.90;;;;;;5151809;27;20405;-79
2022/01/14 05:43:18;;;;;;;24.73;15.88;;;6.10;99.90;;;;;;5117744;27;20046;-79
2022/01/14 05:45:45;;;;;;;33.95;18.10;;;6.10;99.90;;;;;;5135627;27;20896;-79
2022/01/14 05:48:11;;;;;;;35.65;17.13;;;6.20;99.90;;;;;;5130947;27;20500;-79
2022/01/14 05:50:38;;;;;;;38.30;18.23;;;6.10;99.90;;;;;;5150474;27;20066;-77
2022/01/14 05:53:06;;;;;;;35.00;17.95;;;6.10;99.90;;;;;;5124304;27;20480;-79
2022/01/14 05:55:33;;;;;;;29.98;17.00;;;6.10;99.90;;;;;;5130879;27;20039;-78
2022/01/14 05:57:59;;;;;;;39.30;17.23;;;6.10;99.90;;;;;;5140308;27;20047;-79
2022/01/14 06:00:26;;;;;;;28.80;16.52;;;6.10;99.90;;;;;;5136734;27;20050;-79
2022/01/14 06:02:52;;;;;;;48.80;16.35;;;6.10;99.90;;;;;;5147098;27;20053;-78
2022/01/14 06:05:19;;;;;;;31.27;16.25;;;6.10;99.90;;;;;;5124649;27;20050;-78
2022/01/14 06:07:45;;;;;;;32.00;16.17;;;6.10;99.90;;;;;;5136175;27;20058;-78
2022/01/14 06:10:12;;;;;;;37.08;17.98;;;6.10;99.90;;;;;;5149904;27;20062;-78
2022/01/14 06:12:39;;;;;;;33.72;15.85;;;6.10;99.90;;;;;;5133129;27;20051;-78
2022/01/14 06:15:05;;;;;;;33.08;16.73;;;6.10;99.90;;;;;;5152098;27;20059;-78
2022/01/14 06:17:32;;;;;;;31.35;17.23;;;6.10;99.90;;;;;;5152558;27;20053;-78
2022/01/14 06:19:58;;;;;;;25.77;17.17;;;6.00;99.90;;;;;;5149893;27;20053;-78
2022/01/14 06:22:25;;;;;;;32.10;15.95;;;6.00;99.90;;;;;;5152762;27;20050;-79
2022/01/14 06:24:51;;;;;;;29.45;15.07;;;6.10;99.90;;;;;;5150030;27;20039;-79
2022/01/14 06:27:18;;;;;;;34.20;15.73;;;6.10;99.90;;;;;;5133165;27;20046;-78
2022/01/14 06:29:44;;;;;;;35.08;17.60;;;6.00;99.90;;;;;;5134399;27;20039;-78
2022/01/14 06:32:11;;;;;;;31.35;16.23;;;6.00;99.90;;;;;;5130657;27;20463;-77
2022/01/14 06:34:37;;;;;;;37.03;18.30;;;6.10;99.90;;;;;;5152400;27;20049;-78
2022/01/14 06:37:04;;;;;;;24.58;16.08;;;6.10;99.90;;;;;;5132485;27;20053;-78
2022/01/14 06:39:30;;;;;;;41.72;17.55;;;6.10;99.90;;;;;;5133898;27;20042;-77
2022/01/14 06:41:57;;;;;;;25.48;16.17;;;6.10;99.90;;;;;;5152203;27;20553;-79
2022/01/14 06:44:23;;;;;;;29.08;16.45;;;6.10;99.90;;;;;;5151716;27;20046;-79
2022/01/14 06:46:50;;;;;;;32.67;17.17;;;6.10;99.90;;;;;;5150558;27;20042;-77
2022/01/14 06:49:17;;;;;;;31.88;15.73;;;6.10;99.90;;;;;;5132187;27;20042;-79
2022/01/14 06:51:43;;;;;;;33.67;17.50;;;6.10;99.90;;;;;;5131913;27;20043;-78
2022/01/14 06:54:10;;;;;;;26.58;16.40;;;6.10;99.90;;;;;;5132136;27;20045;-78
2022/01/14 06:56:38;;;;;;;34.97;17.48;;;6.10;99.90;;;;;;5132269;27;20047;-79
2022/01/14 06:59:04;;;;;;;34.90;17.02;;;6.10;99.90;;;;;;5132535;27;20518;-78
2022/01/14 07:01:31;;;;;;;38.45;17.98;;;6.10;99.90;;;;;;5151801;27;20817;-78
2022/01/14 07:03:57;;;;;;;33.40;16.75;;;6.10;99.90;;;;;;5133471;27;20465;-79
2022/01/14 07:06:24;;;;;;;31.58;16.58;;;6.10;99.90;;;;;;5131553;27;20042;-78
2022/01/14 07:08:51;;;;;;;32.78;14.50;;;6.10;99.90;;;;;;5152392;27;20047;-78
2022/01/14 07:11:18;;;;;;;36.03;17.08;;;6.10;99.90;;;;;;5129169;27;20051;-78
2022/01/14 07:13:44;;;;;;;32.03;15.80;;;6.10;99.90;;;;;;5129525;27;20051;-78
2022/01/14 07:16:11;;;;;;;24.98;14.95;;;6.10;99.90;;;;;;5132593;27;20397;-78
2022/01/14 07:18:37;;;;;;;26.45;16.38;;;6.10;99.90;;;;;;5150197;27;20038;-78
2022/01/14 07:21:04;;;;;;;26.08;14.82;;;6.10;99.90;;;;;;5133054;27;20043;-78
2022/01/14 07:23:30;;;;;;;31.45;14.50;;;6.10;99.90;;;;;;5150174;27;20405;-78
2022/01/14 07:25:57;;;;;;;27.38;13.95;;;6.10;99.90;;;;;;5151797;27;20059;-80
2022/01/14 07:28:23;;;;;;;28.65;14.60;;;6.20;99.90;;;;;;5151938;27;20042;-78
2022/01/14 07:30:50;;;;;;;31.98;14.32;;;6.20;99.90;;;;;;5133233;27;20443;-77
2022/01/14 07:33:17;;;;;;;24.10;13.07;;;6.20;99.90;;;;;;5133235;27;20069;-78
2022/01/14 07:35:44;;;;;;;26.98;14.05;;;6.20;99.90;;;;;;5152992;27;20096;-78
2022/01/14 07:38:11;;;;;;;30.67;13.57;;;6.30;99.90;;;;;;5149714;27;20047;-78
2022/01/14 07:40:39;;;;;;;25.65;13.55;;;6.20;99.90;;;;;;5132831;27;20073;-78
2022/01/14 07:43:06;;;;;;;31.92;15.30;;;6.20;99.90;;;;;;5149016;27;20039;-78
2022/01/14 07:45:32;;;;;;;45.85;15.13;;;6.10;99.90;;;;;;5130012;27;20043;-78
2022/01/14 07:47:59;;;;;;;24.67;13.45;;;6.10;99.90;;;;;;5131073;27;20050;-79
2022/01/14 07:50:25;;;;;;;24.45;12.43;;;6.20;99.90;;;;;;5131313;27;20047;-78
2022/01/14 07:52:52;;;;;;;30.52;12.85;;;6.20;99.90;;;;;;5150120;27;20054;-79
2022/01/14 07:55:18;;;;;;;34.45;12.02;;;6.20;99.90;;;;;;5133067;27;20046;-78
2022/01/14 07:57:46;;;;;;;24.02;11.10;;;6.20;99.90;;;;;;5130560;27;20046;-78
2022/01/14 08:00:12;;;;;;;33.15;12.13;;;6.20;99.90;;;;;;5150438;27;20042;-79
2022/01/14 08:02:39;;;;;;;20.77;12.27;;;6.30;99.90;;;;;;5150381;27;20056;-79
2022/01/14 08:05:05;;;;;;;25.23;10.85;;;6.20;99.90;;;;;;5130999;27;20047;-79
2022/01/14 08:07:34;;;;;;;24.17;11.35;;;6.30;99.90;;;;;;5129884;27;20047;-79
2022/01/14 08:10:01;;;;;;;16.67;10.52;;;6.20;99.90;;;;;;5130619;27;20046;-79
2022/01/14 08:12:27;;;;;;;21.05;11.40;;;6.20;99.90;;;;;;5153769;27;20113;-79
2022/01/14 08:14:54;;;;;;;31.65;11.95;;;6.20;99.90;;;;;;5135717;27;20043;-78
2022/01/14 08:17:21;;;;;;;25.05;10.45;;;6.20;99.90;;;;;;5154650;27;20133;-79
2022/01/14 08:19:49;;;;;;;22.80;9.75;;;6.30;99.90;;;;;;5135369;27;20481;-79
2022/01/14 08:22:15;;;;;;;29.50;10.43;;;6.30;99.90;;;;;;5135159;27;20055;-78
2022/01/14 08:24:42;;;;;;;27.88;10.75;;;6.30;99.90;;;;;;5136148;27;20065;-79
2022/01/14 08:27:08;;;;;;;23.50;10.18;;;6.30;99.90;;;;;;5155283;27;20066;-79
2022/01/14 08:29:35;;;;;;;24.33;9.88;;;6.30;99.90;;;;;;5135511;27;20046;-79
2022/01/14 08:32:01;;;;;;;20.13;9.43;;;6.30;99.90;;;;;;5129136;27;20047;-79
2022/01/14 08:34:28;;;;;;;29.23;10.60;;;6.30;99.90;;;;;;5133611;27;20054;-79
2022/01/14 08:36:55;;;;;;;35.38;11.27;;;6.30;99.90;;;;;;5131716;27;20492;-79
2022/01/14 08:39:21;;;;;;;19.23;9.85;;;6.30;99.90;;;;;;5121484;27;20070;-79
2022/01/14 08:41:48;;;;;;;22.02;9.90;;;6.30;99.90;;;;;;5126944;27;20055;-79
2022/01/14 08:44:14;;;;;;;14.55;9.75;;;6.30;99.90;;;;;;5142177;27;20490;-79
2022/01/14 08:46:41;;;;;;;21.27;10.13;;;6.30;99.90;;;;;;5129249;27;20051;-79
2022/01/14 08:49:08;;;;;;;19.73;9.95;;;6.40;99.90;;;;;;5124784;27;20482;-79
2022/01/14 08:51:36;;;;;;;33.28;11.20;;;6.40;99.90;;;;;;5127343;27;20043;-78
2022/01/14 08:54:02;;;;;;;22.25;10.38;;;6.40;99.90;;;;;;5151821;27;20133;-78
2022/01/14 08:56:29;;;;;;;24.35;10.68;;;6.40;99.90;;;;;;5149297;27;20053;-78
2022/01/14 08:58:55;;;;;;;23.13;10.45;;;6.40;99.90;;;;;;5129554;27;20079;-78
2022/01/14 09:01:22;;;;;;;21.27;10.23;;;6.40;99.90;;;;;;5129108;27;20054;-78
2022/01/14 09:03:48;;;;;;;19.67;9.82;;;6.40;99.90;;;;;;5132592;27;20769;-79
2022/01/14 09:06:15;;;;;;;24.70;9.80;;;6.40;99.90;;;;;;5151237;27;20042;-78
2022/01/14 09:08:41;;;;;;;21.42;9.80;;;6.50;99.90;;;;;;5143499;27;20046;-78
2022/01/14 09:11:08;;;;;;;29.75;11.32;;;6.40;99.90;;;;;;5118166;27;20051;-79
2022/01/14 09:13:34;;;;;;;28.15;9.75;;;6.50;99.90;;;;;;5151196;27;20070;-79
2022/01/14 09:16:01;;;;;;;16.88;8.65;;;6.50;99.90;;;;;;5129075;27;20059;-79
2022/01/14 09:18:28;;;;;;;22.95;9.68;;;6.50;99.90;;;;;;5146244;27;20035;-80
2022/01/14 09:20:56;;;;;;;19.30;9.95;;;6.50;99.90;;;;;;5142108;27;20061;-78
2022/01/14 09:23:25;;;;;;;19.42;10.55;;;6.50;99.90;;;;;;5128338;27;20046;-79
2022/01/14 09:25:52;;;;;;;17.50;10.23;;;6.50;99.90;;;;;;5123927;27;20051;-79
2022/01/14 09:28:18;;;;;;;19.70;8.25;;;6.60;99.90;;;;;;5122223;27;20054;-78
2022/01/14 09:30:45;;;;;;;20.27;9.68;;;6.60;99.90;;;;;;5120001;27;20054;-79
2022/01/14 09:33:11;;;;;;;16.58;8.30;;;6.60;99.90;;;;;;5129114;27;20050;-80
2022/01/14 09:35:40;;;;;;;14.90;8.52;;;6.60;99.90;;;;;;5119234;27;20057;-78
2022/01/14 09:38:06;;;;;;;27.55;9.13;;;6.60;99.90;;;;;;5133145;27;20057;-79
2022/01/14 09:40:33;;;;;;;20.95;8.70;;;6.60;99.90;;;;;;5125242;27;20043;-80
2022/01/14 09:43:01;;;;;;;10.55;7.90;;;6.60;99.90;;;;;;5122879;27;20050;-79
2022/01/14 09:45:28;;;;;;;19.63;7.68;;;6.70;99.90;;;;;;5128092;27;20055;-79
2022/01/14 09:47:55;;;;;;;21.02;9.13;;;6.70;99.90;;;;;;5124702;27;20069;-79
2022/01/14 09:50:21;;;;;;;22.35;9.05;;;6.70;99.90;;;;;;5138177;27;20058;-79
2022/01/14 09:52:51;;;;;;;19.20;8.13;;;6.70;99.90;;;;;;5127682;27;20047;-79
2022/01/14 09:55:17;;;;;;;28.48;9.02;;;6.80;99.90;;;;;;5131290;27;20057;-79
2022/01/14 09:57:44;;;;;;;21.67;7.72;;;6.80;99.90;;;;;;5131654;27;20055;-79
2022/01/14 10:00:10;;;;;;;14.63;7.43;;;6.80;99.90;;;;;;5144389;27;20055;-78
2022/01/14 10:02:37;;;;;;;17.55;6.38;;;6.90;99.90;;;;;;5139917;27;20051;-79
2022/01/14 10:05:04;;;;;;;14.95;6.10;;;6.90;99.90;;;;;;5136065;27;20551;-77
2022/01/14 10:07:32;;;;;;;20.15;5.72;;;6.90;99.90;;;;;;5117734;27;20055;-78
2022/01/14 10:10:00;;;;;;;19.67;5.63;;;7.10;99.90;;;;;;5130140;27;20054;-79
2022/01/14 10:12:26;;;;;;;12.60;6.22;;;7.00;99.90;;;;;;5133800;27;20047;-79
2022/01/14 10:14:53;;;;;;;26.48;6.50;;;7.10;99.90;;;;;;5139106;27;20054;-79
2022/01/14 10:17:19;;;;;;;13.27;5.55;;;7.10;99.90;;;;;;5129374;27;20039;-79
2022/01/14 10:19:46;;;;;;;12.93;5.97;;;7.20;99.90;;;;;;5132154;27;20038;-79
2022/01/14 10:22:13;;;;;;;20.13;6.43;;;7.20;99.90;;;;;;5152477;27;20042;-79
2022/01/14 10:24:39;;;;;;;20.15;5.32;;;7.10;99.90;;;;;;5133502;27;20050;-78
2022/01/14 10:27:06;;;;;;;14.73;4.97;;;7.20;99.90;;;;;;5132642;27;20050;-78
2022/01/14 10:29:32;;;;;;;10.13;5.68;;;7.10;99.90;;;;;;5132631;27;20057;-79
2022/01/14 10:31:59;;;;;;;16.75;4.30;;;7.00;99.90;;;;;;5125010;27;20051;-79
2022/01/14 10:34:26;;;;;;;10.82;4.75;;;7.00;99.90;;;;;;5130956;27;20070;-78
2022/01/14 10:36:53;;;;;;;6.50;3.63;;;7.20;99.90;;;;;;5130531;27;20409;-79
2022/01/14 10:39:19;;;;;;;12.77;4.55;;;7.20;99.90;;;;;;5133192;27;20406;-79
2022/01/14 10:41:46;;;;;;;20.10;4.75;;;7.10;99.90;;;;;;5133754;27;20043;-78
2022/01/14 10:44:12;;;;;;;13.55;5.18;;;7.00;99.90;;;;;;5130318;27;20078;-77
2022/01/14 10:46:39;;;;;;;14.07;4.35;;;7.20;99.90;;;;;;5150040;27;20051;-79
2022/01/14 10:49:06;;;;;;;11.82;4.50;;;7.20;99.90;;;;;;5149855;27;20054;-78
2022/01/14 10:51:33;;;;;;;17.25;4.65;;;7.10;99.90;;;;;;5146116;27;20043;-78
2022/01/14 10:54:00;;;;;;;14.98;4.88;;;7.20;99.90;;;;;;5151027;27;20054;-78
2022/01/14 10:56:27;;;;;;;11.00;4.13;;;7.10;99.90;;;;;;5131952;27;20055;-78
2022/01/14 10:58:56;;;;;;;16.23;5.13;;;7.00;99.90;;;;;;5127045;27;20043;-78
2022/01/14 11:01:23;;;;;;;13.93;5.07;;;7.00;99.90;;;;;;5130558;27;20129;-77
2022/01/14 11:03:52;;;;;;;12.63;4.70;;;7.00;99.90;;;;;;5152991;27;20079;-78
2022/01/14 11:06:18;;;;;;;19.88;5.75;;;7.10;99.90;;;;;;5131382;27;20038;-79
2022/01/14 11:08:45;;;;;;;18.65;5.60;;;7.00;99.90;;;;;;5131712;27;20057;-78
2022/01/14 11:11:11;;;;;;;25.08;5.68;;;7.00;99.90;;;;;;5133200;27;20515;-77
2022/01/14 11:13:38;;;;;;;24.55;4.75;;;7.10;99.90;;;;;;5133949;27;20397;-78
2022/01/14 11:16:04;;;;;;;11.02;4.93;;;7.10;99.90;;;;;;5132958;27;20061;-77
2022/01/14 11:18:31;;;;;;;15.68;5.80;;;7.10;99.90;;;;;;5129911;27;20042;-78
2022/01/14 11:23:42;;;;;;;9.88;4.57;;;7.10;99.90;;;;;;5131743;27;20086;-77
2022/01/14 11:26:08;;;;;;;19.42;4.43;;;7.10;99.90;;;;;;5126249;27;20039;-78
2022/01/14 11:28:35;;;;;;;14.52;5.20;;;7.10;99.90;;;;;;5126507;27;20488;-78
2022/01/14 11:31:02;;;;;;;25.25;5.55;;;7.10;99.90;;;;;;5151122;27;20042;-77
2022/01/14 11:33:28;;;;;;;10.77;4.80;;;7.20;99.90;;;;;;5133395;27;20053;-78
2022/01/14 11:35:55;;;;;;;15.18;4.25;;;7.20;99.90;;;;;;5133102;27;20046;-77
2022/01/14 11:38:22;;;;;;;12.13;3.90;;;7.20;99.90;;;;;;5131705;27;20055;-79
2022/01/14 11:40:48;;;;;;;16.08;4.45;;;7.10;99.90;;;;;;5119500;27;20047;-77
2022/01/14 11:43:15;;;;;;;12.50;5.55;;;7.10;99.90;;;;;;5147400;27;20043;-77
2022/01/14 11:45:41;;;;;;;13.15;4.30;;;7.10;99.90;;;;;;5135651;27;20065;-77
2022/01/14 11:48:08;;;;;;;13.73;5.22;;;7.10;99.90;;;;;;5134723;27;20051;-77
2022/01/14 11:50:34;;;;;;;15.88;4.40;;;7.30;99.90;;;;;;5123875;27;20096;-78
2022/01/14 11:53:02;;;;;;;18.30;4.47;;;7.30;99.90;;;;;;5126421;27;20046;-78
2022/01/14 11:55:29;;;;;;;13.50;5.10;;;7.30;99.90;;;;;;5125816;27;20044;-77
2022/01/14 11:57:56;;;;;;;20.45;4.60;;;7.30;99.90;;;;;;5124985;27;20050;-77
2022/01/14 12:00:22;;;;;;;18.15;5.65;;;7.20;99.90;;;;;;5139030;27;20096;-79
2022/01/14 12:02:49;;;;;;;18.40;4.57;;;7.30;99.90;;;;;;5145735;27;20050;-77
2022/01/14 12:05:15;;;;;;;17.98;5.00;;;7.20;99.90;;;;;;5119642;27;20052;-78
2022/01/14 12:07:42;;;;;;;13.95;4.78;;;7.20;99.90;;;;;;5122762;27;20051;-78
2022/01/14 12:10:09;;;;;;;14.05;4.40;;;7.30;99.90;;;;;;5128033;27;20047;-78
2022/01/14 12:12:36;;;;;;;12.07;5.30;;;7.30;99.90;;;;;;5145030;27;20039;-78
2022/01/14 12:15:04;;;;;;;26.13;5.45;;;7.30;99.90;;;;;;5121324;27;20058;-78
2022/01/14 12:17:30;;;;;;;26.52;6.65;;;7.20;99.90;;;;;;5126122;27;20058;-79
2022/01/14 12:19:57;;;;;;;21.85;6.25;;;7.10;99.90;;;;;;5127238;27;20123;-78
2022/01/14 12:22:24;;;;;;;33.72;6.70;;;7.10;99.90;;;;;;5129698;27;20046;-78
2022/01/14 12:24:50;;;;;;;15.60;5.15;;;7.20;99.90;;;;;;5120231;27;20039;-78
2022/01/14 12:27:17;;;;;;;24.77;5.43;;;7.10;99.90;;;;;;5119306;27;20054;-78
2022/01/14 12:29:43;;;;;;;27.13;6.82;;;7.10;99.90;;;;;;5117996;28;20071;-78
2022/01/14 12:32:10;;;;;;;21.85;5.15;;;7.00;99.90;;;;;;5138555;27;20134;-79
2022/01/14 12:34:36;;;;;;;18.80;5.72;;;7.10;99.90;;;;;;5120869;27;20157;-80
2022/01/14 12:37:03;;;;;;;22.88;6.05;;;7.10;99.90;;;;;;5125645;27;20046;-77
2022/01/14 12:39:30;;;;;;;35.15;8.13;;;7.10;99.90;;;;;;5138536;27;20370;-80
2022/01/14 12:41:56;;;;;;;30.63;6.28;;;7.10;99.90;;;;;;5122851;27;20043;-78
2022/01/14 12:44:23;;;;;;;21.48;5.40;;;7.10;99.90;;;;;;5133748;27;20060;-77
2022/01/14 12:46:54;;;;;;;18.90;6.25;;;7.00;99.90;;;;;;5119296;28;20043;-77
2022/01/14 12:49:20;;;;;;;;;;;7.10;99.90;;;;;;5118813;28;20219;-76
2022/01/14 12:51:47;;;;;;;19.80;7.88;;;7.10;99.90;;;;;;5127676;27;19926;-76
2022/01/14 12:54:13;;;;;;;31.00;7.57;;;7.10;99.90;;;;;;5124142;27;20058;-76
2022/01/14 12:56:40;;;;;;;33.38;7.20;;;7.10;99.90;;;;;;5136492;27;20043;-77
2022/01/14 12:59:07;;;;;;;28.95;10.50;;;7.10;99.90;;;;;;5122213;27;20054;-76
2022/01/14 13:01:33;;;;;;;26.67;6.57;;;7.00;99.90;;;;;;5133409;27;20092;-77